createdAt,value
2022-12-05T00:01:23.185Z,32.05
2022-12-05T00:03:54.511Z,36.28
2022-12-05T00:06:24.986Z,32.95
2022-12-05T00:08:53.185Z,33.88
2022-12-05T00:11:23.428Z,36.05
2022-12-05T00:13:53.073Z,32.58
2022-12-05T00:16:23.593Z,34.70
2022-12-05T00:18:51.791Z,34.15
2022-12-05T00:21:22.167Z,33.63
2022-12-05T00:23:52.722Z,35.13
2022-12-05T00:26:21.264Z,33.60
2022-12-05T00:28:49.361Z,34.20
2022-12-05T00:31:19.058Z,32.42
2022-12-05T00:33:48.214Z,33.58
2022-12-05T00:36:18.800Z,34.20
2022-12-05T00:38:46.773Z,33.20
2022-12-05T00:41:18.619Z,33.22
2022-12-05T00:43:46.633Z,33.53
2022-12-05T00:46:16.192Z,31.98
2022-12-05T00:48:44.161Z,33.63
2022-12-05T00:51:17.251Z,31.27
2022-12-05T00:53:45.787Z,35.55
2022-12-05T00:56:17.445Z,33.40
2022-12-05T00:58:45.932Z,35.25
2022-12-05T01:01:16.183Z,33.63
2022-12-05T01:03:45.868Z,33.20
2022-12-05T01:06:14.496Z,31.65
2022-12-05T01:08:42.581Z,31.92
2022-12-05T01:11:12.078Z,31.52
2022-12-05T01:13:41.333Z,32.75
2022-12-05T01:16:15.124Z,36.17
2022-12-05T01:18:43.207Z,32.75
2022-12-05T01:21:11.822Z,32.72
2022-12-05T01:23:39.701Z,32.63
2022-12-05T01:26:10.065Z,32.55
2022-12-05T01:28:38.606Z,32.03
2022-12-05T01:31:13.273Z,32.78
2022-12-05T01:33:41.154Z,34.35
2022-12-05T01:36:12.296Z,34.63
2022-12-05T01:38:40.886Z,34.13
2022-12-05T01:41:12.490Z,33.25
2022-12-05T01:43:55.666Z,35.22
2022-12-05T01:46:25.142Z,35.10
2022-12-05T01:48:54.815Z,33.85
2022-12-05T01:51:24.421Z,33.28
2022-12-05T01:53:52.759Z,33.80
2022-12-05T01:56:21.497Z,33.80
2022-12-05T01:58:50.244Z,36.15
2022-12-05T02:01:19.945Z,32.10
2022-12-05T02:03:53.435Z,32.03
2022-12-05T02:06:21.947Z,33.83
2022-12-05T02:08:50.850Z,33.47
2022-12-05T02:11:18.837Z,31.95
2022-12-05T02:14:05.085Z,35.25
2022-12-05T02:16:46.517Z,32.25
2022-12-05T02:19:59.348Z,34.28
2022-12-05T02:23:09.160Z,32.95
2022-12-05T02:25:58.145Z,34.55
2022-12-05T02:28:55.070Z,32.75
2022-12-05T02:31:35.070Z,33.65
2022-12-05T02:34:07.801Z,34.65
2022-12-05T02:36:41.955Z,36.83
2022-12-05T02:39:18.377Z,34.65
2022-12-05T02:41:51.839Z,34.85
2022-12-05T02:44:25.944Z,34.80
2022-12-05T02:46:56.627Z,36.45
2022-12-05T02:49:29.519Z,36.25
2022-12-05T02:52:01.115Z,33.47
2022-12-05T02:54:33.275Z,31.88
2022-12-05T02:57:02.106Z,33.00
2022-12-05T02:59:30.250Z,32.45
2022-12-05T03:01:59.466Z,30.88
2022-12-05T03:04:28.833Z,32.58
2022-12-05T03:07:00.367Z,32.22
2022-12-05T03:09:34.524Z,30.48
2022-12-05T03:12:11.834Z,32.00
2022-12-05T03:14:45.573Z,30.00
2022-12-05T03:17:21.952Z,27.95
2022-12-05T03:19:54.208Z,29.17
2022-12-05T03:22:28.793Z,28.42
2022-12-05T03:25:00.146Z,28.35
2022-12-05T03:27:33.919Z,26.40
2022-12-05T03:30:08.768Z,28.60
2022-12-05T03:32:45.502Z,26.33
2022-12-05T03:35:19.188Z,27.25
2022-12-05T03:37:52.956Z,28.17
2022-12-05T03:40:28.811Z,25.73
2022-12-05T03:43:06.101Z,25.30
2022-12-05T03:45:42.691Z,25.70
2022-12-05T03:48:20.200Z,26.67
2022-12-05T03:50:50.033Z,25.60
2022-12-05T03:53:22.159Z,24.45
2022-12-05T03:55:58.182Z,26.67
2022-12-05T03:58:32.578Z,26.65
2022-12-05T04:01:02.834Z,25.73
2022-12-05T04:03:40.330Z,24.75
2022-12-05T04:06:15.643Z,27.35
2022-12-05T04:08:48.668Z,27.42
2022-12-05T04:11:20.868Z,25.75
2022-12-05T04:13:51.499Z,26.10
2022-12-05T04:16:39.259Z,25.38
2022-12-05T04:19:16.394Z,24.73
2022-12-05T04:21:47.935Z,26.73
2022-12-05T04:24:39.347Z,27.38
2022-12-05T04:27:22.243Z,25.70
2022-12-05T04:30:01.312Z,24.13
2022-12-05T04:32:37.240Z,25.67
2022-12-05T04:35:12.712Z,25.42
2022-12-05T04:37:45.230Z,26.13
2022-12-05T04:40:20.317Z,25.67
2022-12-05T04:42:50.661Z,24.02
2022-12-05T04:45:21.226Z,24.65
2022-12-05T04:47:54.484Z,27.08
2022-12-05T04:52:56.139Z,24.48
2022-12-05T04:55:28.021Z,23.67
2022-12-05T04:58:02.873Z,23.40
2022-12-05T05:00:33.043Z,23.25
2022-12-05T05:03:07.911Z,22.67
2022-12-05T05:05:39.543Z,21.95
2022-12-05T05:08:18.273Z,21.80
2022-12-05T05:10:56.346Z,21.80
2022-12-05T05:13:24.173Z,21.83
2022-12-05T05:15:52.152Z,22.15
2022-12-05T05:18:20.137Z,21.38
2022-12-05T05:20:49.381Z,22.23
2022-12-05T05:23:17.285Z,21.63
2022-12-05T05:25:45.152Z,21.02
2022-12-05T05:28:13.056Z,21.63
2022-12-05T05:30:40.910Z,20.48
2022-12-05T05:33:08.848Z,19.30
2022-12-05T05:35:37.686Z,20.45
2022-12-05T05:38:07.370Z,19.00
2022-12-05T05:40:37.464Z,19.33
2022-12-05T05:43:05.884Z,17.77
2022-12-05T05:45:33.725Z,18.73
2022-12-05T05:48:01.681Z,18.00
2022-12-05T05:50:29.666Z,18.73
2022-12-05T05:52:57.520Z,16.90
2022-12-05T05:55:26.706Z,17.48
2022-12-05T05:57:54.574Z,17.50
2022-12-05T06:00:22.871Z,16.95
2022-12-05T06:02:50.893Z,16.85
2022-12-05T06:05:18.877Z,16.02
2022-12-05T06:07:46.793Z,15.45
2022-12-05T06:10:14.755Z,15.20
2022-12-05T06:12:43.963Z,15.55
2022-12-05T06:15:12.507Z,15.02
2022-12-05T06:17:40.403Z,14.80
2022-12-05T06:20:09.563Z,15.40
2022-12-05T06:22:37.452Z,14.50
2022-12-05T06:25:05.923Z,15.63
2022-12-05T06:27:33.806Z,13.23
2022-12-05T06:30:03.092Z,14.77
2022-12-05T06:32:30.997Z,14.18
2022-12-05T06:34:58.993Z,14.60
2022-12-05T06:37:26.854Z,16.27
2022-12-05T06:39:54.704Z,14.48
2022-12-05T06:42:23.010Z,15.25
2022-12-05T06:44:50.914Z,14.38
2022-12-05T06:47:20.137Z,15.75
2022-12-05T06:49:48.037Z,14.90
2022-12-05T06:52:15.965Z,15.10
2022-12-05T06:54:43.906Z,14.90
2022-12-05T06:57:11.772Z,14.25
2022-12-05T06:59:39.745Z,15.60
2022-12-05T07:02:08.373Z,16.58
2022-12-05T07:04:37.828Z,15.05
2022-12-05T07:07:05.905Z,15.70
2022-12-05T07:09:48.195Z,15.40
2022-12-05T07:12:18.637Z,14.10
2022-12-05T07:14:49.022Z,14.80
2022-12-05T07:17:18.105Z,15.55
2022-12-05T07:19:49.178Z,14.82
2022-12-05T07:22:18.729Z,12.60
2022-12-05T07:24:47.536Z,15.18
2022-12-05T07:27:20.548Z,15.77
2022-12-05T07:29:52.101Z,15.38
2022-12-05T07:32:20.165Z,14.75
2022-12-05T07:34:54.758Z,15.07
2022-12-05T07:37:23.823Z,14.65
2022-12-05T07:39:53.031Z,14.52
2022-12-05T07:42:20.960Z,16.23
2022-12-05T07:44:48.909Z,16.23
2022-12-05T07:47:16.911Z,14.52
2022-12-05T07:49:44.819Z,16.17
2022-12-05T07:52:14.177Z,16.10
2022-12-05T07:54:42.295Z,14.40
2022-12-05T07:57:10.250Z,14.30
2022-12-05T07:59:38.273Z,15.13
2022-12-05T08:02:06.245Z,12.70
2022-12-05T08:04:34.277Z,12.98
2022-12-05T08:07:02.157Z,13.73
2022-12-05T08:09:31.639Z,13.90
2022-12-05T08:11:59.621Z,14.23
2022-12-05T08:14:27.519Z,13.27
2022-12-05T08:16:55.421Z,12.88
2022-12-05T08:19:23.449Z,14.50
2022-12-05T08:21:52.396Z,13.63
2022-12-05T08:24:20.313Z,13.10
2022-12-05T08:26:49.501Z,12.65
2022-12-05T08:29:21.290Z,13.98
2022-12-05T08:31:51.180Z,13.30
2022-12-05T08:34:21.049Z,14.57
2022-12-05T08:36:48.968Z,14.18
2022-12-05T08:39:18.814Z,13.30
2022-12-05T08:41:47.994Z,15.00
2022-12-05T08:44:18.622Z,15.05
2022-12-05T08:46:48.287Z,13.90
2022-12-05T08:49:16.923Z,15.38
2022-12-05T08:51:45.075Z,14.73
2022-12-05T08:54:13.011Z,15.05
2022-12-05T08:56:40.907Z,13.70
2022-12-05T08:59:09.122Z,14.25
2022-12-05T09:01:39.517Z,15.68
2022-12-05T09:04:08.937Z,15.02
2022-12-05T09:06:39.425Z,13.88
2022-12-05T09:09:11.587Z,13.88
2022-12-05T09:11:44.038Z,15.00
2022-12-05T09:14:11.982Z,14.23
2022-12-05T09:16:41.612Z,13.82
2022-12-05T09:19:14.441Z,13.60
2022-12-05T09:21:43.477Z,13.23
2022-12-05T09:24:12.703Z,14.02
2022-12-05T09:26:41.313Z,13.70
2022-12-05T09:29:15.733Z,14.05
2022-12-05T09:31:46.651Z,13.73
2022-12-05T09:34:15.320Z,13.88
2022-12-05T09:36:44.018Z,14.10
2022-12-05T09:39:12.436Z,13.75
2022-12-05T09:42:08.336Z,13.65
2022-12-05T09:44:58.428Z,13.43
2022-12-05T09:47:37.445Z,13.70
2022-12-05T09:50:15.478Z,13.27
2022-12-05T09:52:56.479Z,13.35
2022-12-05T09:55:24.417Z,12.90
2022-12-05T09:57:55.276Z,14.15
2022-12-05T10:00:23.342Z,14.68
2022-12-05T10:03:03.874Z,13.07
2022-12-05T10:05:41.361Z,15.10
2022-12-05T10:08:19.320Z,13.13
2022-12-05T10:11:01.221Z,15.90
2022-12-05T10:13:46.418Z,13.98
2022-12-05T10:16:19.125Z,12.38
2022-12-05T10:18:51.634Z,15.00
2022-12-05T10:21:23.447Z,14.87
2022-12-05T10:23:58.293Z,14.93
2022-12-05T10:26:30.782Z,13.50
2022-12-05T10:29:08.921Z,13.73
2022-12-05T10:31:39.487Z,13.15
2022-12-05T10:34:16.440Z,15.00
2022-12-05T10:36:52.173Z,13.35
2022-12-05T10:39:20.125Z,14.23
2022-12-05T10:41:48.086Z,13.48
2022-12-05T10:44:15.997Z,13.35
2022-12-05T10:46:43.943Z,13.50
2022-12-05T10:49:13.951Z,13.27
2022-12-05T10:51:42.452Z,13.57
2022-12-05T10:54:18.093Z,14.02
2022-12-05T10:56:47.637Z,13.38
2022-12-05T10:59:17.854Z,13.70
2022-12-05T11:01:49.606Z,13.68
2022-12-05T11:04:26.108Z,14.90
2022-12-05T11:06:57.650Z,14.23
2022-12-05T11:09:28.255Z,14.35
2022-12-05T11:12:07.368Z,14.82
2022-12-05T11:14:36.407Z,14.55
2022-12-05T11:17:06.806Z,15.30
2022-12-05T11:19:38.071Z,15.23
2022-12-05T11:22:08.004Z,15.07
2022-12-05T11:24:38.158Z,14.82
2022-12-05T11:27:22.156Z,14.77
2022-12-05T11:29:57.734Z,14.80
2022-12-05T11:32:27.338Z,16.30
2022-12-05T11:35:04.398Z,15.00
2022-12-05T11:37:38.421Z,14.27
2022-12-05T11:40:16.369Z,14.38
2022-12-05T11:43:02.865Z,15.80
2022-12-05T11:45:48.405Z,14.43
2022-12-05T11:48:37.789Z,15.52
2022-12-05T11:51:21.827Z,15.73
2022-12-05T11:54:30.640Z,14.48
2022-12-05T11:57:12.381Z,14.40
2022-12-05T12:00:05.344Z,15.73
2022-12-05T12:03:00.225Z,14.98
2022-12-05T12:05:37.135Z,15.25
2022-12-05T12:08:18.216Z,16.17
2022-12-05T12:10:56.183Z,16.38
2022-12-05T12:13:38.714Z,15.55
2022-12-05T12:16:15.593Z,15.10
2022-12-05T12:19:21.388Z,14.93
2022-12-05T12:22:05.516Z,15.23
2022-12-05T12:24:54.141Z,15.85
2022-12-05T12:27:35.677Z,16.75
2022-12-05T12:30:12.446Z,17.17
2022-12-05T12:32:56.161Z,17.42
2022-12-05T12:35:32.146Z,15.75
2022-12-05T12:38:14.536Z,16.45
2022-12-05T12:40:49.756Z,17.60
2022-12-05T12:43:53.184Z,17.75
2022-12-05T12:46:35.226Z,17.23
2022-12-05T12:49:21.689Z,17.10
2022-12-05T12:51:53.896Z,16.98
2022-12-05T12:55:02.909Z,17.25
2022-12-05T12:57:40.399Z,18.40
2022-12-05T13:00:21.352Z,18.77
2022-12-05T13:02:53.322Z,16.35
2022-12-05T13:05:27.992Z,19.13
2022-12-05T13:08:02.086Z,18.83
2022-12-05T13:10:34.830Z,18.75
2022-12-05T13:13:07.225Z,18.02
2022-12-05T13:15:41.052Z,18.53
2022-12-05T13:18:16.032Z,18.10
2022-12-05T13:20:45.502Z,18.23
2022-12-05T13:23:16.291Z,21.13
2022-12-05T13:25:45.976Z,20.92
2022-12-05T13:28:26.972Z,19.65
2022-12-05T13:31:01.325Z,20.80
2022-12-05T13:33:33.795Z,18.80
2022-12-05T13:36:26.620Z,19.80
2022-12-05T13:39:20.721Z,20.60
2022-12-05T13:42:09.031Z,21.92
2022-12-05T13:44:42.220Z,21.13
2022-12-05T13:47:25.966Z,21.38
2022-12-05T13:49:57.749Z,21.23
2022-12-05T13:52:31.113Z,22.67
2022-12-05T13:55:04.056Z,21.75
2022-12-05T13:57:53.283Z,21.70
2022-12-05T14:00:28.316Z,22.45
2022-12-05T14:03:03.264Z,21.98
2022-12-05T14:05:46.590Z,21.92
2022-12-05T14:08:56.058Z,22.70
2022-12-05T14:11:24.800Z,22.08
2022-12-05T14:14:00.747Z,22.38
2022-12-05T14:16:46.223Z,22.58
2022-12-05T14:19:54.114Z,22.33
2022-12-05T14:22:57.620Z,22.67
2022-12-05T14:25:58.345Z,23.02
2022-12-05T14:28:44.747Z,21.67
2022-12-05T14:31:29.870Z,23.55
2022-12-05T14:34:17.960Z,23.05
2022-12-05T14:36:58.809Z,22.80
2022-12-05T14:39:40.957Z,22.73
2022-12-05T14:42:23.865Z,23.10
2022-12-05T14:44:54.899Z,24.92
2022-12-05T14:47:26.973Z,21.88
2022-12-05T14:50:02.171Z,23.73
2022-12-05T14:52:34.031Z,24.10
2022-12-05T14:55:09.539Z,24.50
2022-12-05T14:57:46.401Z,24.73
2022-12-05T15:00:22.119Z,23.45
2022-12-05T15:02:52.896Z,24.17
2022-12-05T15:05:27.390Z,23.90
2022-12-05T15:07:58.581Z,23.95
2022-12-05T15:10:30.625Z,25.23
2022-12-05T15:13:01.453Z,23.85
2022-12-05T15:15:36.516Z,23.45
2022-12-05T15:18:15.851Z,25.88
2022-12-05T15:20:51.733Z,25.27
2022-12-05T15:23:42.303Z,24.70
2022-12-05T15:29:12.876Z,24.58
2022-12-05T15:31:47.221Z,23.52
2022-12-05T15:34:22.813Z,24.27
2022-12-05T15:36:58.599Z,24.27
2022-12-05T15:39:28.602Z,24.45
2022-12-05T15:41:58.183Z,24.67
2022-12-05T15:44:36.093Z,23.75
2022-12-05T15:47:05.543Z,27.30
2022-12-05T15:49:33.400Z,23.27
2022-12-05T15:52:24.301Z,24.83
2022-12-05T15:54:53.624Z,24.67
2022-12-05T15:57:26.940Z,24.00
2022-12-05T16:02:35.478Z,22.02
2022-12-05T16:05:03.552Z,23.48
2022-12-05T16:07:33.233Z,23.73
2022-12-05T16:10:02.533Z,25.67
2022-12-05T16:12:36.721Z,26.05
2022-12-05T16:15:09.442Z,24.00
2022-12-05T16:17:43.283Z,24.20
2022-12-05T16:20:13.637Z,27.30
2022-12-05T16:22:48.393Z,24.92
2022-12-05T16:25:18.586Z,24.92
2022-12-05T16:27:57.917Z,24.55
2022-12-05T16:30:26.783Z,25.92
2022-12-05T16:33:04.717Z,23.45
2022-12-05T16:35:37.391Z,23.42
2022-12-05T16:38:11.295Z,24.05
2022-12-05T16:40:40.793Z,22.88
2022-12-05T16:43:20.323Z,25.38
2022-12-05T16:45:50.130Z,23.42
2022-12-05T16:48:25.931Z,22.95
2022-12-05T16:50:54.973Z,23.73
2022-12-05T16:53:30.851Z,23.85
2022-12-05T16:55:59.909Z,23.67
2022-12-05T16:58:30.888Z,24.63
2022-12-05T17:01:03.453Z,25.83
2022-12-05T17:03:35.661Z,22.43
2022-12-05T17:06:04.538Z,23.65
2022-12-05T17:08:33.877Z,22.80
2022-12-05T17:11:03.691Z,23.73
2022-12-05T17:13:32.688Z,24.15
2022-12-05T17:16:00.712Z,24.60
2022-12-05T17:18:31.780Z,23.23
2022-12-05T17:21:02.455Z,24.48
2022-12-05T17:23:30.336Z,24.30
2022-12-05T17:26:00.198Z,24.75
2022-12-05T17:28:28.095Z,23.75
2022-12-05T17:30:56.057Z,23.17
2022-12-05T17:33:24.210Z,23.35
2022-12-05T17:35:52.275Z,22.67
2022-12-05T17:38:20.867Z,21.63
2022-12-05T17:40:48.972Z,21.20
2022-12-05T17:43:24.539Z,21.45
2022-12-05T17:45:54.051Z,20.85
2022-12-05T17:48:22.497Z,20.52
2022-12-05T17:50:50.654Z,21.15
2022-12-05T17:53:20.619Z,20.75
2022-12-05T17:55:49.018Z,18.80
2022-12-05T17:58:18.871Z,20.33
2022-12-05T18:00:48.330Z,21.15
2022-12-05T18:03:18.697Z,21.40
2022-12-05T18:05:47.093Z,21.75
2022-12-05T18:08:16.984Z,20.02
2022-12-05T18:10:47.215Z,19.98
2022-12-05T18:13:15.669Z,20.55
2022-12-05T18:15:47.086Z,20.20
2022-12-05T18:18:17.085Z,20.10
2022-12-05T18:20:45.377Z,19.02
2022-12-05T18:23:13.362Z,19.67
2022-12-05T18:25:41.606Z,17.95
2022-12-05T18:28:09.461Z,18.38
2022-12-05T18:30:37.443Z,19.52
2022-12-05T18:33:06.744Z,17.70
2022-12-05T18:35:43.437Z,17.67
2022-12-05T18:38:12.264Z,19.67
2022-12-05T18:40:40.193Z,17.92
2022-12-05T18:43:08.061Z,18.75
2022-12-05T18:45:35.955Z,19.27
2022-12-05T18:48:23.346Z,18.65
2022-12-05T18:50:53.745Z,18.08
2022-12-05T18:53:21.976Z,19.40
2022-12-05T18:56:21.610Z,19.42
2022-12-05T18:58:38.790Z,18.58
2022-12-05T19:01:09.153Z,18.30
2022-12-05T19:03:38.627Z,18.45
2022-12-05T19:06:14.342Z,19.42
2022-12-05T19:08:42.741Z,19.10
2022-12-05T19:11:10.615Z,19.08
2022-12-05T19:13:38.557Z,17.45
2022-12-05T19:16:08.398Z,18.70
2022-12-05T19:18:36.638Z,17.85
2022-12-05T19:21:04.668Z,19.02
2022-12-05T19:23:35.794Z,17.10
2022-12-05T19:26:05.389Z,20.58
2022-12-05T19:28:33.511Z,19.67
2022-12-05T19:31:02.975Z,20.20
2022-12-05T19:33:34.578Z,19.50
2022-12-05T19:36:07.885Z,21.20
2022-12-05T19:41:05.655Z,20.13
2022-12-05T19:43:35.007Z,21.80
2022-12-05T19:46:04.906Z,20.70
2022-12-05T19:48:33.959Z,21.08
2022-12-05T19:51:02.917Z,22.70
2022-12-05T19:53:33.270Z,20.63
2022-12-05T19:56:03.148Z,23.15
2022-12-05T19:58:32.828Z,21.05
2022-12-05T20:01:08.660Z,21.90
2022-12-05T20:03:36.571Z,21.33
2022-12-05T20:06:05.380Z,19.60
2022-12-05T20:08:33.453Z,20.25
2022-12-05T20:11:06.306Z,21.42
2022-12-05T20:13:46.604Z,21.67
2022-12-05T20:16:16.523Z,20.38
2022-12-05T20:18:44.461Z,20.88
2022-12-05T20:21:15.688Z,21.98
2022-12-05T20:23:43.552Z,20.92
2022-12-05T20:26:14.582Z,20.90
2022-12-05T20:28:42.721Z,19.15
2022-12-05T20:31:12.621Z,19.02
2022-12-05T20:33:41.532Z,18.90
2022-12-05T20:36:11.682Z,18.48
2022-12-05T20:38:39.936Z,18.35
2022-12-05T20:41:11.027Z,17.70
2022-12-05T20:43:40.274Z,17.45
2022-12-05T20:46:11.088Z,16.05
2022-12-05T20:48:39.100Z,16.45
2022-12-05T20:51:08.245Z,16.85
2022-12-05T20:53:37.343Z,15.27
2022-12-05T20:56:06.331Z,15.20
2022-12-05T20:58:34.439Z,15.23
2022-12-05T21:01:05.657Z,15.80
2022-12-05T21:03:33.952Z,15.40
2022-12-05T21:06:07.296Z,14.60
2022-12-05T21:08:35.178Z,14.02
2022-12-05T21:11:03.054Z,13.27
2022-12-05T21:13:30.932Z,14.95
2022-12-05T21:15:59.019Z,13.55
2022-12-05T21:18:29.778Z,13.48
2022-12-05T21:20:58.700Z,12.25
2022-12-05T21:23:27.018Z,12.75
2022-12-05T21:25:55.557Z,13.15
2022-12-05T21:28:23.400Z,12.82
2022-12-05T21:30:51.360Z,13.45
2022-12-05T21:33:20.557Z,13.35
2022-12-05T21:35:56.393Z,14.07
2022-12-05T21:38:24.324Z,12.75
2022-12-05T21:40:52.780Z,13.90
2022-12-05T21:43:20.607Z,13.15
2022-12-05T21:45:53.100Z,12.93
2022-12-05T21:48:21.957Z,12.73
2022-12-05T21:50:50.014Z,13.15
2022-12-05T21:53:23.303Z,13.85
2022-12-05T21:56:00.660Z,12.77
2022-12-05T21:58:28.918Z,11.95
2022-12-05T22:00:56.769Z,11.73
2022-12-05T22:03:25.108Z,13.88
2022-12-05T22:06:00.855Z,13.05
2022-12-05T22:08:34.539Z,13.48
2022-12-05T22:11:06.703Z,13.48
2022-12-05T22:13:35.203Z,12.38
2022-12-05T22:16:06.849Z,13.32
2022-12-05T22:18:35.274Z,12.85
2022-12-05T22:21:05.566Z,11.95
2022-12-05T22:23:36.129Z,12.88
2022-12-05T22:26:06.753Z,12.23
2022-12-05T22:28:36.060Z,12.82
2022-12-05T22:31:06.493Z,13.75
2022-12-05T22:33:35.748Z,12.20
2022-12-05T22:36:04.546Z,11.20
2022-12-05T22:38:39.311Z,12.00
2022-12-05T22:41:09.881Z,11.30
2022-12-05T22:43:40.602Z,11.95
2022-12-05T22:46:11.716Z,11.40
2022-12-05T22:48:39.815Z,12.80
2022-12-05T22:51:09.604Z,12.38
2022-12-05T22:53:39.607Z,12.05
2022-12-05T22:56:09.193Z,11.18
2022-12-05T22:58:37.510Z,12.40
2022-12-05T23:01:14.018Z,11.23
2022-12-05T23:03:42.635Z,12.50
2022-12-05T23:06:14.618Z,12.15
2022-12-05T23:08:45.733Z,10.87
2022-12-05T23:11:13.666Z,11.38
2022-12-05T23:13:41.589Z,11.50
2022-12-05T23:16:11.927Z,10.57
2022-12-05T23:18:47.612Z,10.52
2022-12-05T23:21:20.368Z,11.30
2022-12-05T23:23:51.617Z,11.20
2022-12-05T23:26:20.794Z,10.85
2022-12-05T23:28:48.728Z,10.80
2022-12-05T23:31:17.140Z,10.13
2022-12-05T23:33:45.038Z,10.52
2022-12-05T23:36:13.980Z,10.00
2022-12-05T23:38:43.878Z,10.07
2022-12-05T23:41:15.585Z,9.95
2022-12-05T23:43:44.474Z,10.45
2022-12-05T23:46:14.258Z,10.27
2022-12-05T23:48:42.209Z,9.95
2022-12-05T23:51:12.667Z,10.00
2022-12-05T23:53:42.187Z,9.55
2022-12-05T23:56:11.535Z,9.90
2022-12-05T23:58:41.106Z,9.55
